createdAt,value
2018-11-14T00:00:48.712Z,2.58
2018-11-14T00:03:16.335Z,2.83
2018-11-14T00:05:43.938Z,3.83
2018-11-14T00:08:11.483Z,3.22
2018-11-14T00:10:39.027Z,1.80
2018-11-14T00:13:06.611Z,2.87
2018-11-14T00:15:34.247Z,2.45
2018-11-14T00:18:01.742Z,2.20
2018-11-14T00:20:32.564Z,2.50
2018-11-14T00:23:00.172Z,2.58
2018-11-14T00:25:27.727Z,3.33
2018-11-14T00:27:55.302Z,2.80
2018-11-14T00:30:24.068Z,3.27
2018-11-14T00:32:51.659Z,2.35
2018-11-14T00:35:19.191Z,1.80
2018-11-14T00:37:47.224Z,2.10
2018-11-14T00:40:15.663Z,2.35
2018-11-14T00:42:43.819Z,2.72
2018-11-14T00:45:13.060Z,2.30
2018-11-14T00:47:41.332Z,3.95
2018-11-14T00:50:09.800Z,2.37
2018-11-14T00:52:37.396Z,1.55
2018-11-14T00:55:06.303Z,1.30
2018-11-14T00:57:33.948Z,2.55
2018-11-14T01:00:01.619Z,3.02
2018-11-14T01:02:29.189Z,2.27
2018-11-14T01:04:56.827Z,2.98
2018-11-14T01:07:24.455Z,2.22
2018-11-14T01:09:52.039Z,1.95
2018-11-14T01:12:19.599Z,2.08
2018-11-14T01:14:47.176Z,3.12
2018-11-14T01:17:14.783Z,2.20
2018-11-14T01:19:42.372Z,2.20
2018-11-14T01:22:10.012Z,2.87
2018-11-14T01:24:37.588Z,2.77
2018-11-14T01:27:05.183Z,2.15
2018-11-14T01:29:32.804Z,1.77
2018-11-14T01:32:00.447Z,3.72
2018-11-14T01:34:28.004Z,39.50
2018-11-14T01:36:55.588Z,2.30
2018-11-14T01:39:23.159Z,3.25
2018-11-14T01:41:50.690Z,3.45
2018-11-14T01:44:18.251Z,3.20
2018-11-14T01:46:49.565Z,2.87
2018-11-14T01:49:17.111Z,2.90
2018-11-14T01:51:44.732Z,2.62
2018-11-14T01:54:12.339Z,2.33
2018-11-14T01:56:39.921Z,2.08
2018-11-14T01:59:07.533Z,2.85
2018-11-14T02:01:35.091Z,4.00
2018-11-14T02:04:02.704Z,2.42
2018-11-14T02:06:30.266Z,2.75
2018-11-14T02:08:57.851Z,3.05
2018-11-14T02:11:25.463Z,3.20
2018-11-14T02:13:53.042Z,3.25
2018-11-14T02:16:23.835Z,1.98
2018-11-14T02:18:51.588Z,2.98
2018-11-14T02:21:19.198Z,2.15
2018-11-14T02:23:46.809Z,2.65
2018-11-14T02:26:14.435Z,2.45
2018-11-14T02:28:42.080Z,2.95
2018-11-14T02:31:09.700Z,2.45
2018-11-14T02:33:37.303Z,2.55
2018-11-14T02:36:08.411Z,2.22
2018-11-14T02:38:35.992Z,2.00
2018-11-14T02:41:03.571Z,2.62
2018-11-14T02:43:31.176Z,1.85
2018-11-14T02:45:58.760Z,1.57
2018-11-14T02:48:26.319Z,2.33
2018-11-14T02:51:03.032Z,3.85
2018-11-14T02:53:30.559Z,2.30
2018-11-14T02:56:02.660Z,2.30
2018-11-14T02:58:30.195Z,3.72
2018-11-14T03:01:01.241Z,2.15
2018-11-14T03:03:28.879Z,3.70
2018-11-14T03:05:56.456Z,28.85
2018-11-14T03:08:24.011Z,2.15
2018-11-14T03:10:51.631Z,2.12
2018-11-14T03:13:19.227Z,7.92
2018-11-14T03:15:46.913Z,3.15
2018-11-14T03:18:14.468Z,2.50
2018-11-14T03:20:42.041Z,3.25
2018-11-14T03:23:09.561Z,3.47
2018-11-14T03:25:37.073Z,3.67
2018-11-14T03:28:04.657Z,3.15
2018-11-14T03:30:35.616Z,3.10
2018-11-14T03:33:06.153Z,3.37
2018-11-14T03:35:39.137Z,3.12
2018-11-14T03:38:06.716Z,3.72
2018-11-14T03:40:34.305Z,2.65
2018-11-14T03:43:01.854Z,3.45
2018-11-14T03:45:29.394Z,3.15
2018-11-14T03:47:56.889Z,4.17
2018-11-14T03:50:24.439Z,3.50
2018-11-14T03:52:51.982Z,3.45
2018-11-14T03:55:19.513Z,4.22
2018-11-14T03:57:47.054Z,2.90
2018-11-14T04:00:17.917Z,2.40
2018-11-14T04:02:46.275Z,3.02
2018-11-14T04:05:13.828Z,3.58
2018-11-14T04:07:41.607Z,3.80
2018-11-14T04:10:09.980Z,3.60
2018-11-14T04:12:37.954Z,4.15
2018-11-14T04:15:05.847Z,3.83
2018-11-14T04:17:33.342Z,3.98
2018-11-14T04:20:00.885Z,4.00
2018-11-14T04:22:28.681Z,5.15
2018-11-14T04:24:56.243Z,2.47
2018-11-14T04:27:23.828Z,3.45
2018-11-14T04:29:51.574Z,3.72
2018-11-14T04:32:19.162Z,4.92
2018-11-14T04:34:46.723Z,5.33
2018-11-14T04:37:14.227Z,3.77
2018-11-14T04:39:41.828Z,2.50
2018-11-14T04:42:09.360Z,3.70
2018-11-14T04:44:36.917Z,4.08
2018-11-14T04:47:05.478Z,4.45
2018-11-14T04:49:33.136Z,4.92
2018-11-14T04:52:00.657Z,1.98
2018-11-14T04:54:28.214Z,1.30
2018-11-14T04:56:55.756Z,3.72
2018-11-14T04:59:23.257Z,3.60
2018-11-14T05:01:50.861Z,2.72
2018-11-14T05:04:18.403Z,4.67
2018-11-14T05:06:45.879Z,3.92
2018-11-14T05:09:13.436Z,4.75
2018-11-14T05:11:41.535Z,3.42
2018-11-14T05:14:09.558Z,5.78
2018-11-14T05:16:37.154Z,4.20
2018-11-14T05:19:04.790Z,4.92
2018-11-14T05:21:32.854Z,6.10
2018-11-14T05:24:00.390Z,4.00
2018-11-14T05:26:27.950Z,6.28
2018-11-14T05:28:55.554Z,3.98
2018-11-14T05:31:23.218Z,7.62
2018-11-14T05:33:50.918Z,4.00
2018-11-14T05:36:18.508Z,6.25
2018-11-14T05:38:46.082Z,5.70
2018-11-14T05:41:13.578Z,5.40
2018-11-14T05:43:41.102Z,7.03
2018-11-14T05:46:08.697Z,3.87
2018-11-14T05:48:36.204Z,4.90
2018-11-14T05:51:03.785Z,5.62
2018-11-14T05:53:31.384Z,6.35
2018-11-14T05:55:59.097Z,5.78
2018-11-14T05:58:26.680Z,4.75
2018-11-14T06:00:54.280Z,5.08
2018-11-14T06:03:21.975Z,4.72
2018-11-14T06:05:49.534Z,4.95
2018-11-14T06:08:17.090Z,5.72
2018-11-14T06:10:44.635Z,4.72
2018-11-14T06:13:12.183Z,4.92
2018-11-14T06:15:39.714Z,5.20
2018-11-14T06:18:07.302Z,7.95
2018-11-14T06:20:34.874Z,5.67
2018-11-14T06:23:02.426Z,6.03
2018-11-14T06:25:31.991Z,7.67
2018-11-14T06:28:00.613Z,5.78
2018-11-14T06:30:28.346Z,6.40
2018-11-14T06:32:56.295Z,4.60
2018-11-14T06:35:23.987Z,6.58
2018-11-14T06:37:52.134Z,6.95
2018-11-14T06:40:20.059Z,6.47
2018-11-14T06:42:47.670Z,5.42
2018-11-14T06:45:16.574Z,6.95
2018-11-14T06:47:45.363Z,5.58
2018-11-14T06:50:13.523Z,5.92
2018-11-14T06:52:41.595Z,6.20
2018-11-14T06:55:10.337Z,6.10
2018-11-14T06:57:37.910Z,9.60
2018-11-14T07:00:07.475Z,8.10
2018-11-14T07:02:38.337Z,8.58
2018-11-14T07:05:02.623Z,10.80
2018-11-14T07:07:30.175Z,7.37
2018-11-14T07:09:57.758Z,7.97
2018-11-14T07:12:25.282Z,7.90
2018-11-14T07:14:52.815Z,6.30
2018-11-14T07:17:20.371Z,7.83
2018-11-14T07:19:48.554Z,6.05
2018-11-14T07:22:16.158Z,6.80
2018-11-14T07:24:43.796Z,7.37
2018-11-14T07:27:12.314Z,5.17
2018-11-14T07:29:39.892Z,5.60
2018-11-14T07:32:07.427Z,5.00
2018-11-14T07:34:34.951Z,4.22
2018-11-14T07:37:02.541Z,4.33
2018-11-14T07:39:30.134Z,3.98
2018-11-14T07:41:57.689Z,4.67
2018-11-14T07:44:25.283Z,4.53
2018-11-14T07:46:52.883Z,4.62
2018-11-14T07:49:20.467Z,5.00
2018-11-14T07:51:48.018Z,4.55
2018-11-14T07:54:15.579Z,3.67
2018-11-14T07:56:43.115Z,3.90
2018-11-14T07:59:10.650Z,4.45
2018-11-14T08:01:38.196Z,5.00
2018-11-14T08:04:05.710Z,5.78
2018-11-14T08:06:33.286Z,5.08
2018-11-14T08:09:00.891Z,5.20
2018-11-14T08:11:28.416Z,5.40
2018-11-14T08:13:55.972Z,5.05
2018-11-14T08:16:23.628Z,4.20
2018-11-14T08:18:51.273Z,6.28
2018-11-14T08:21:18.770Z,4.55
2018-11-14T08:23:46.309Z,6.20
2018-11-14T08:26:13.891Z,5.22
2018-11-14T08:28:41.450Z,5.53
2018-11-14T08:31:09.026Z,5.45
2018-11-14T08:33:36.598Z,5.95
2018-11-14T08:36:04.222Z,6.65
2018-11-14T08:38:31.783Z,5.42
2018-11-14T08:40:59.373Z,7.53
2018-11-14T08:43:26.895Z,5.72
2018-11-14T08:45:54.482Z,7.53
2018-11-14T08:48:22.018Z,6.70
2018-11-14T08:50:49.573Z,7.70
2018-11-14T08:53:17.162Z,5.83
2018-11-14T08:55:44.738Z,6.58
2018-11-14T08:58:12.911Z,7.28
2018-11-14T09:00:40.439Z,6.47
2018-11-14T09:03:08.982Z,7.62
2018-11-14T09:05:36.550Z,7.42
2018-11-14T09:08:04.182Z,7.12
2018-11-14T09:10:31.819Z,10.25
2018-11-14T09:12:59.422Z,9.03
2018-11-14T09:15:26.994Z,8.08
2018-11-14T09:17:54.518Z,6.67
2018-11-14T09:20:23.522Z,8.33
2018-11-14T09:22:51.051Z,8.18
2018-11-14T09:25:19.671Z,9.95
2018-11-14T09:27:47.258Z,11.95
2018-11-14T09:30:16.650Z,11.90
2018-11-14T09:32:44.299Z,9.65
2018-11-14T09:35:13.080Z,12.73
2018-11-14T09:37:40.875Z,9.80
2018-11-14T09:40:09.011Z,12.55
2018-11-14T09:42:37.219Z,10.48
2018-11-14T09:45:05.683Z,11.57
2018-11-14T09:47:33.335Z,8.18
2018-11-14T09:50:00.951Z,11.12
2018-11-14T09:52:28.514Z,10.60
2018-11-14T09:54:56.342Z,9.50
2018-11-14T09:57:23.994Z,10.08
2018-11-14T09:59:51.546Z,11.28
2018-11-14T10:02:19.011Z,15.83
2018-11-14T10:04:46.612Z,14.63
2018-11-14T10:07:14.173Z,11.55
2018-11-14T10:09:41.687Z,10.63
2018-11-14T10:12:09.303Z,10.30
2018-11-14T10:14:36.885Z,9.80
2018-11-14T10:17:04.694Z,12.68
2018-11-14T10:19:32.247Z,12.20
2018-11-14T10:21:59.747Z,14.07
2018-11-14T10:24:27.634Z,10.58
2018-11-14T10:26:55.150Z,12.23
2018-11-14T10:29:22.693Z,11.50
2018-11-14T10:31:50.231Z,10.72
2018-11-14T10:34:17.810Z,10.60
2018-11-14T10:36:45.442Z,9.78
2018-11-14T10:39:13.030Z,12.45
2018-11-14T10:41:40.714Z,10.82
2018-11-14T10:44:08.547Z,10.55
2018-11-14T10:46:36.045Z,9.93
2018-11-14T10:49:03.850Z,12.55
2018-11-14T10:51:31.423Z,12.58
2018-11-14T10:53:59.047Z,13.80
2018-11-14T10:56:26.598Z,16.45
2018-11-14T10:58:57.990Z,11.48
2018-11-14T11:01:31.170Z,11.50
2018-11-14T11:04:04.256Z,11.63
2018-11-14T11:06:37.432Z,12.00
2018-11-14T11:09:12.038Z,13.28
2018-11-14T11:11:45.250Z,12.95
2018-11-14T11:14:18.566Z,12.63
2018-11-14T11:16:52.759Z,13.00
2018-11-14T11:19:21.742Z,12.15
2018-11-14T11:21:49.315Z,12.88
2018-11-14T11:24:18.203Z,12.37
2018-11-14T11:26:45.807Z,12.23
2018-11-14T11:29:13.419Z,11.22
2018-11-14T11:31:40.975Z,11.90
2018-11-14T11:34:09.344Z,10.93
2018-11-14T11:36:37.220Z,11.53
2018-11-14T11:39:07.674Z,10.75
2018-11-14T11:41:38.905Z,13.50
2018-11-14T11:44:06.466Z,14.60
2018-11-14T11:46:34.087Z,12.53
2018-11-14T11:49:01.699Z,14.50
2018-11-14T11:51:29.242Z,13.32
2018-11-14T11:53:57.006Z,13.90
2018-11-14T11:56:24.609Z,12.13
2018-11-14T11:58:52.154Z,14.30
2018-11-14T12:01:23.593Z,12.68
2018-11-14T12:03:51.125Z,14.47
2018-11-14T12:06:18.962Z,11.85
2018-11-14T12:08:46.292Z,13.22
2018-11-14T12:11:13.858Z,12.40
2018-11-14T12:13:41.498Z,13.93
2018-11-14T12:16:08.990Z,14.13
2018-11-14T12:18:36.510Z,14.18
2018-11-14T12:21:04.148Z,13.08
2018-11-14T12:23:31.724Z,12.50
2018-11-14T12:25:59.237Z,12.43
2018-11-14T12:28:26.771Z,11.53
2018-11-14T12:30:54.472Z,13.32
2018-11-14T12:33:22.038Z,12.78
2018-11-14T12:35:49.620Z,11.40
2018-11-14T12:38:17.054Z,14.58
2018-11-14T12:40:44.576Z,10.58
2018-11-14T12:43:12.170Z,12.18
2018-11-14T12:45:39.766Z,12.80
2018-11-14T12:48:07.326Z,13.80
2018-11-14T12:50:36.086Z,13.55
2018-11-14T12:53:03.686Z,12.70
2018-11-14T12:55:31.302Z,13.88
2018-11-14T12:57:59.007Z,11.85
2018-11-14T13:00:26.732Z,12.40
2018-11-14T13:02:54.277Z,13.00
2018-11-14T13:05:21.903Z,14.40
2018-11-14T13:07:49.406Z,13.22
2018-11-14T13:10:17.947Z,12.55
2018-11-14T13:12:46.478Z,13.03
2018-11-14T13:15:14.902Z,13.48
2018-11-14T13:17:43.180Z,13.85
2018-11-14T13:20:11.866Z,12.30
2018-11-14T13:22:39.494Z,14.95
2018-11-14T13:25:08.102Z,14.75
2018-11-14T13:27:36.809Z,13.43
2018-11-14T13:30:05.594Z,13.38
2018-11-14T13:32:33.234Z,12.40
2018-11-14T13:35:00.807Z,13.83
2018-11-14T13:37:28.326Z,14.15
2018-11-14T13:39:55.886Z,14.30
2018-11-14T13:42:23.466Z,14.20
2018-11-14T13:44:51.390Z,15.03
2018-11-14T13:47:19.056Z,15.32
2018-11-14T13:49:46.768Z,15.75
2018-11-14T13:52:14.138Z,14.93
2018-11-14T13:54:41.692Z,15.15
2018-11-14T13:57:09.267Z,15.60
2018-11-14T13:59:36.806Z,13.65
2018-11-14T14:02:04.771Z,15.10
2018-11-14T14:04:32.398Z,13.48
2018-11-14T14:06:59.971Z,15.93
2018-11-14T14:09:27.620Z,15.65
2018-11-14T14:11:55.146Z,13.35
2018-11-14T14:14:22.747Z,13.15
2018-11-14T14:16:50.378Z,14.13
2018-11-14T14:19:18.015Z,15.50
2018-11-14T14:21:45.633Z,12.88
2018-11-14T14:24:14.213Z,12.85
2018-11-14T14:26:41.750Z,15.00
2018-11-14T14:29:09.432Z,13.30
2018-11-14T14:31:37.342Z,13.72
2018-11-14T14:34:05.212Z,13.05
2018-11-14T14:36:32.798Z,15.40
2018-11-14T14:39:00.330Z,15.15
2018-11-14T14:41:27.890Z,13.83
2018-11-14T14:43:55.433Z,15.08
2018-11-14T14:46:26.848Z,15.30
2018-11-14T14:48:54.543Z,13.53
2018-11-14T14:51:22.047Z,13.15
2018-11-14T14:53:49.596Z,15.83
2018-11-14T14:56:17.155Z,14.63
2018-11-14T14:58:44.767Z,15.15
2018-11-14T15:01:12.396Z,14.25
2018-11-14T15:03:40.018Z,14.15
2018-11-14T15:06:07.586Z,13.25
2018-11-14T15:08:35.146Z,16.73
2018-11-14T15:11:02.680Z,14.70
2018-11-14T15:13:30.251Z,14.70
2018-11-14T15:15:57.851Z,14.43
2018-11-14T15:18:25.442Z,14.75
2018-11-14T15:20:52.994Z,12.95
2018-11-14T15:23:20.586Z,12.93
2018-11-14T15:25:48.110Z,15.68
2018-11-14T15:28:15.705Z,16.05
2018-11-14T15:30:43.289Z,15.25
2018-11-14T15:33:10.790Z,14.43
2018-11-14T15:35:38.346Z,14.95
2018-11-14T15:38:05.963Z,16.25
2018-11-14T15:40:33.514Z,17.17
2018-11-14T15:43:01.074Z,14.65
2018-11-14T15:45:29.458Z,15.43
2018-11-14T15:47:57.110Z,14.35
2018-11-14T15:50:26.138Z,15.32
2018-11-14T15:52:54.615Z,15.18
2018-11-14T15:55:22.469Z,13.85
2018-11-14T15:57:50.065Z,13.32
2018-11-14T16:00:37.545Z,12.28
2018-11-14T16:03:05.164Z,16.45
2018-11-14T16:05:33.245Z,13.20
2018-11-14T16:08:01.741Z,16.97
2018-11-14T16:10:30.246Z,14.43
2018-11-14T16:12:57.838Z,15.40
2018-11-14T16:15:34.401Z,13.50
2018-11-14T16:18:02.038Z,14.03
2018-11-14T16:20:29.562Z,15.10
2018-11-14T16:22:57.104Z,13.20
2018-11-14T16:25:25.619Z,13.80
2018-11-14T16:27:54.666Z,15.23
2018-11-14T16:30:30.222Z,12.95
2018-11-14T16:32:59.003Z,16.55
2018-11-14T16:35:26.619Z,14.45
2018-11-14T16:37:54.220Z,12.93
2018-11-14T16:40:22.988Z,12.23
2018-11-14T16:42:51.747Z,13.53
2018-11-14T16:45:19.337Z,14.33
2018-11-14T16:47:46.879Z,13.78
2018-11-14T16:50:15.680Z,13.75
2018-11-14T16:52:43.230Z,11.05
2018-11-14T16:55:12.312Z,9.95
2018-11-14T16:57:42.386Z,11.80
2018-11-14T17:00:11.909Z,10.35
2018-11-14T17:02:39.862Z,14.33
2018-11-14T17:05:07.371Z,11.33
2018-11-14T17:07:34.942Z,9.65
2018-11-14T17:10:06.587Z,9.90
2018-11-14T17:12:34.132Z,7.75
2018-11-14T17:15:01.752Z,8.83
2018-11-14T17:17:29.238Z,8.68
2018-11-14T17:19:56.845Z,7.45
2018-11-14T17:22:27.952Z,8.15
2018-11-14T17:24:55.474Z,8.13
2018-11-14T17:27:23.042Z,9.78
2018-11-14T17:29:50.614Z,11.30
2018-11-14T17:32:18.210Z,9.58
2018-11-14T17:34:45.754Z,12.05
2018-11-14T17:37:13.370Z,9.90
2018-11-14T17:39:44.174Z,9.33
2018-11-14T17:42:11.956Z,8.33
2018-11-14T17:44:39.282Z,9.45
2018-11-14T17:47:10.566Z,8.80
2018-11-14T17:49:38.179Z,8.00
2018-11-14T17:52:05.786Z,7.28
2018-11-14T17:54:33.427Z,7.90
2018-11-14T17:57:01.267Z,7.60
2018-11-14T17:59:28.830Z,7.08
2018-11-14T18:01:56.363Z,9.45
2018-11-14T18:04:23.916Z,9.58
2018-11-14T18:06:55.330Z,8.85
2018-11-14T18:09:22.879Z,8.90
2018-11-14T18:11:50.462Z,8.30
2018-11-14T18:14:18.042Z,9.50
2018-11-14T18:16:45.608Z,11.25
2018-11-14T18:19:13.198Z,10.75
2018-11-14T18:21:40.771Z,10.43
2018-11-14T18:24:08.417Z,10.00
2018-11-14T18:26:35.978Z,10.55
2018-11-14T18:29:03.481Z,11.60
2018-11-14T18:31:30.991Z,10.50
2018-11-14T18:33:58.547Z,9.70
2018-11-14T18:36:26.145Z,11.08
2018-11-14T18:38:53.634Z,9.80
2018-11-14T18:41:21.234Z,10.63
2018-11-14T18:43:49.130Z,10.70
2018-11-14T18:46:16.732Z,10.10
2018-11-14T18:48:44.210Z,11.55
2018-11-14T18:51:11.768Z,11.15
2018-11-14T18:53:39.270Z,12.15
2018-11-14T18:56:12.527Z,9.83
2018-11-14T18:58:40.122Z,11.43
2018-11-14T19:01:07.660Z,9.75
2018-11-14T19:03:35.266Z,9.58
2018-11-14T19:06:02.784Z,12.05
2018-11-14T19:08:30.347Z,11.53
2018-11-14T19:10:57.946Z,10.72
2018-11-14T19:13:25.493Z,11.85
2018-11-14T19:15:53.091Z,11.28
2018-11-14T19:18:20.716Z,11.55
2018-11-14T19:20:48.307Z,12.30
2018-11-14T19:23:15.738Z,12.45
2018-11-14T19:25:43.113Z,12.00
2018-11-14T19:28:10.533Z,12.60
2018-11-14T19:30:38.309Z,11.93
2018-11-14T19:33:05.970Z,11.43
2018-11-14T19:35:33.473Z,11.28
2018-11-14T19:38:01.102Z,12.28
2018-11-14T19:40:30.083Z,13.85
2018-11-14T19:42:58.184Z,13.55
2018-11-14T19:45:27.119Z,12.95
2018-11-14T19:47:54.905Z,11.78
2018-11-14T19:50:22.983Z,13.00
2018-11-14T19:52:51.847Z,12.55
2018-11-14T19:55:20.572Z,15.05
2018-11-14T19:57:49.009Z,13.40
2018-11-14T20:00:24.193Z,12.78
2018-11-14T20:02:52.012Z,12.47
2018-11-14T20:05:23.098Z,11.53
2018-11-14T20:07:50.692Z,11.20
2018-11-14T20:10:19.925Z,11.97
2018-11-14T20:12:48.864Z,12.93
2018-11-14T20:15:18.222Z,12.33
2018-11-14T20:17:46.841Z,13.72
2018-11-14T20:20:16.227Z,12.55
2018-11-14T20:22:44.878Z,12.80
2018-11-14T20:25:12.838Z,11.28
2018-11-14T20:27:41.035Z,10.82
2018-11-14T20:30:10.534Z,12.23
2018-11-14T20:32:38.613Z,12.82
2018-11-14T20:35:06.594Z,13.45
2018-11-14T20:37:34.568Z,13.58
2018-11-14T20:40:02.507Z,13.05
2018-11-14T20:42:29.935Z,13.32
2018-11-14T20:44:57.438Z,12.58
2018-11-14T20:47:24.839Z,15.43
2018-11-14T20:49:53.235Z,12.98
2018-11-14T20:52:20.645Z,14.00
2018-11-14T20:54:48.556Z,13.85
2018-11-14T20:57:16.597Z,13.10
2018-11-14T20:59:45.295Z,14.10
2018-11-14T21:02:12.990Z,13.25
2018-11-14T21:04:40.771Z,18.20
2018-11-14T21:07:08.692Z,19.02
2018-11-14T21:09:36.278Z,13.08
2018-11-14T21:12:03.954Z,14.03
2018-11-14T21:14:31.338Z,14.45
2018-11-14T21:16:58.767Z,14.60
2018-11-14T21:19:26.076Z,11.20
2018-11-14T21:21:53.417Z,13.78
2018-11-14T21:24:20.770Z,14.63
2018-11-14T21:26:48.102Z,13.62
2018-11-14T21:29:18.905Z,13.80
2018-11-14T21:31:46.266Z,14.53
2018-11-14T21:34:13.606Z,13.58
2018-11-14T21:36:40.949Z,12.73
2018-11-14T21:39:09.801Z,13.70
2018-11-14T21:41:37.125Z,11.68
2018-11-14T21:44:04.841Z,12.35
2018-11-14T21:46:32.196Z,13.85
2018-11-14T21:48:59.533Z,13.68
2018-11-14T21:51:26.874Z,13.80
2018-11-14T21:53:54.221Z,13.40
2018-11-14T21:56:22.578Z,13.08
2018-11-14T21:58:49.913Z,13.30
2018-11-14T22:01:17.241Z,14.47
2018-11-14T22:03:44.581Z,15.13
2018-11-14T22:06:11.945Z,14.10
2018-11-14T22:08:39.293Z,13.48
2018-11-14T22:11:06.633Z,13.38
2018-11-14T22:13:33.965Z,13.48
2018-11-14T22:16:01.312Z,14.35
2018-11-14T22:18:28.674Z,12.03
2018-11-14T22:20:56.084Z,17.07
2018-11-14T22:23:23.369Z,11.78
2018-11-14T22:25:50.739Z,11.93
2018-11-14T22:28:18.089Z,12.73
2018-11-14T22:30:45.445Z,10.68
2018-11-14T22:33:13.962Z,13.25
2018-11-14T22:35:41.517Z,10.23
2018-11-14T22:38:09.510Z,11.53
2018-11-14T22:40:38.994Z,9.25
2018-11-14T22:43:09.502Z,10.13
2018-11-14T22:45:36.841Z,11.00
2018-11-14T22:48:04.504Z,11.78
2018-11-14T22:50:31.861Z,12.00
2018-11-14T22:52:59.213Z,11.70
2018-11-14T22:55:26.591Z,9.13
2018-11-14T22:57:54.225Z,9.60
2018-11-14T23:00:27.953Z,11.43
2018-11-14T23:02:56.530Z,10.85
2018-11-14T23:05:23.905Z,10.32
2018-11-14T23:07:52.257Z,10.60
2018-11-14T23:10:20.533Z,9.55
2018-11-14T23:12:48.281Z,12.53
2018-11-14T23:15:15.657Z,12.75
2018-11-14T23:17:43.018Z,10.05
2018-11-14T23:20:12.594Z,11.95
2018-11-14T23:22:40.786Z,9.40
2018-11-14T23:25:08.690Z,12.78
2018-11-14T23:27:36.068Z,9.75
2018-11-14T23:30:08.280Z,13.32
2018-11-14T23:32:35.627Z,12.60
2018-11-14T23:35:08.777Z,12.25
2018-11-14T23:37:36.142Z,13.40
2018-11-14T23:40:03.610Z,12.78
2018-11-14T23:42:30.961Z,13.40
2018-11-14T23:44:58.297Z,11.48
2018-11-14T23:47:25.653Z,9.73
2018-11-14T23:49:52.989Z,9.53
2018-11-14T23:52:20.357Z,10.75
2018-11-14T23:54:47.694Z,9.35
2018-11-14T23:57:15.038Z,11.40
2018-11-14T23:59:42.402Z,9.03
